This is the latest recevied weather packets stored in our database for station/object N0ZJT. If no packets are shown the sender has not sent any weather packets the latest 10 day(s).
| Time | Temp. | Humidity | Pressure | Rain* | Wind** | Luminosity | Snow |
|---|---|---|---|---|---|---|---|
| 1777679930 | 12.22° C | 35% | 978.4 hPa | 0 mm | - | - | - |
| 1777679090 | 12.22° C | 34% | 978.4 hPa | 0 mm | - | - | - |
| 1777678381 | 12.78° C | 33% | 978.3 hPa | 0 mm | - | - | - |
| 1777678130 | 12.78° C | 33% | 978.3 hPa | 0 mm | - | - | - |
| 1777677290 | 12.78° C | 34% | 978.4 hPa | 0 mm | - | - | - |
| 1777676330 | 13.33° C | 33% | 978.4 hPa | 0 mm | - | - | - |
| 1777675742 | 13.89° C | 33% | 978.3 hPa | 0 mm | - | - | - |
| 1777675490 | 13.89° C | 33% | 978.3 hPa | 0 mm | - | - | - |
| 1777674531 | 13.89° C | 33% | 978.2 hPa | 0 mm | - | - | - |
| 1777673690 | 13.89° C | 34% | 978.3 hPa | 0 mm | - | - | - |
| 1777672730 | 13.89° C | 34% | 978.3 hPa | 0 mm | - | - | - |
| 1777672142 | 13.89° C | 35% | 978.2 hPa | 0 mm | - | - | - |
| 1777671890 | 13.89° C | 35% | 978.2 hPa | 0 mm | - | - | - |
| 1777670930 | 13.33° C | 35% | 978.3 hPa | 0 mm | - | - | - |
| 1777670090 | 12.78° C | 38% | 978.4 hPa | 0 mm | - | - | - |
| 1777669130 | 12.78° C | 38% | 978.4 hPa | 0 mm | - | - | - |
| 1777668541 | 12.78° C | 39% | 978.4 hPa | 0 mm | - | - | - |
| 1777668290 | 12.78° C | 39% | 978.4 hPa | 0 mm | - | - | - |
| 1777667330 | 13.33° C | 39% | 978.5 hPa | 0 mm | - | - | - |
| 1777666490 | 12.78° C | 42% | 978.8 hPa | 0 mm | - | - | - |
| 1777665530 | 12.22° C | 44% | 978.8 hPa | 0 mm | - | - | - |
| 1777664690 | 12.78° C | 45% | 978.5 hPa | 0 mm | - | - | - |
| 1777663730 | 13.33° C | 52% | 978.6 hPa | 0 mm | - | - | - |
| 1777662890 | 10.56° C | 53% | 978.8 hPa | 0 mm | - | - | - |
| 1777662181 | 11.67° C | 51% | 978.8 hPa | 0 mm | - | - | - |
* Rain latest hour (hover to see other rain measurements)
** Current wind speed in m/s (hover to see current wind gust speed)